Time;durP1;ratioP1;P1;durP2;ratioP2;P2;SDS_P1;SDS_P2;PMS_P1;PMS_P2;Temp;Humidity;BMP_temperature;BMP_pressure;BME280_temperature;BME280_humidity;BME280_pressure;Samples;Min_cycle;Max_cycle;Signal;HPM_P1;HPM_P2
2023/10/30 00:00:08;;;;;;;5.68;2.05;;;;;;;;;;4133582;28;20035;-70
2023/10/30 00:02:09;;;;;;;3.88;1.83;;;;;;;;;;4133841;28;20070;-69
2023/10/30 00:04:11;;;;;;;2.83;1.63;;;;;;;;;;4133334;28;20511;-69
2023/10/30 00:06:13;;;;;;;2.28;1.35;;;;;;;;;;4133508;28;20049;-69
2023/10/30 00:08:16;;;;;;;3.40;1.52;;;;;;;;;;4133393;28;20120;-70
2023/10/30 00:10:18;;;;;;;1.70;1.20;;;;;;;;;;4133673;28;20097;-69
2023/10/30 00:12:19;;;;;;;4.03;2.30;;;;;;;;;;4133568;28;20074;-70
2023/10/30 00:14:21;;;;;;;3.15;2.85;;;;;;;;;;4133556;28;20332;-69
2023/10/30 00:16:23;;;;;;;2.58;2.38;;;;;;;;;;4133338;28;20065;-69
2023/10/30 00:18:25;;;;;;;2.95;1.38;;;;;;;;;;4133446;28;20039;-70
2023/10/30 00:20:26;;;;;;;5.28;1.40;;;;;;;;;;4133427;28;20045;-70
2023/10/30 00:22:28;;;;;;;5.75;2.00;;;;;;;;;;4133361;28;20105;-70
2023/10/30 00:24:32;;;;;;;3.30;1.60;;;;;;;;;;4133455;28;20038;-70
2023/10/30 00:26:35;;;;;;;3.50;2.05;;;;;;;;;;4132686;28;20042;-70
2023/10/30 00:28:37;;;;;;;2.10;1.88;;;;;;;;;;4133454;28;20050;-70
2023/10/30 00:30:39;;;;;;;3.07;1.40;;;;;;;;;;4147185;28;20092;-69
2023/10/30 00:32:40;;;;;;;2.40;1.80;;;;;;;;;;4149618;28;20756;-70
2023/10/30 00:34:42;;;;;;;3.95;1.52;;;;;;;;;;4149456;28;20440;-69
2023/10/30 00:36:44;;;;;;;1.70;1.60;;;;;;;;;;4131898;28;20057;-70
2023/10/30 00:38:45;;;;;;;2.88;1.73;;;;;;;;;;4149407;28;20038;-69
2023/10/30 00:40:47;;;;;;;4.85;1.58;;;;;;;;;;4117508;28;20067;-70
2023/10/30 00:42:49;;;;;;;2.05;1.40;;;;;;;;;;4117018;28;20042;-74
2023/10/30 00:44:50;;;;;;;6.18;2.10;;;;;;;;;;4117065;28;20102;-69
2023/10/30 00:46:53;;;;;;;6.18;1.75;;;;;;;;;;4125811;28;20090;-70
2023/10/30 00:48:54;;;;;;;2.58;1.30;;;;;;;;;;4116924;28;20105;-69
2023/10/30 00:50:56;;;;;;;5.35;1.48;;;;;;;;;;4116820;28;20039;-69
2023/10/30 00:52:58;;;;;;;2.45;1.25;;;;;;;;;;4116856;28;20046;-69
2023/10/30 00:54:59;;;;;;;3.05;1.92;;;;;;;;;;4116706;28;20510;-70
2023/10/30 00:57:01;;;;;;;2.25;1.67;;;;;;;;;;4116805;28;20049;-69
2023/10/30 00:59:03;;;;;;;3.92;2.05;;;;;;;;;;4118214;28;20575;-69
2023/10/30 01:01:04;;;;;;;4.22;1.17;;;;;;;;;;4132723;28;20048;-69
2023/10/30 01:03:06;;;;;;;1.77;1.67;;;;;;;;;;4132706;28;20061;-70
2023/10/30 01:05:08;;;;;;;3.83;1.95;;;;;;;;;;4132531;28;20093;-70
2023/10/30 01:07:10;;;;;;;8.48;1.65;;;;;;;;;;4132858;28;20563;-69
2023/10/30 01:09:12;;;;;;;6.70;1.87;;;;;;;;;;4115196;28;20097;-70
2023/10/30 01:11:14;;;;;;;1.45;1.35;;;;;;;;;;4132508;28;20290;-70
2023/10/30 01:13:16;;;;;;;1.80;1.70;;;;;;;;;;4132855;28;20372;-69
2023/10/30 01:15:18;;;;;;;2.72;1.60;;;;;;;;;;4132538;28;20038;-69
2023/10/30 01:17:19;;;;;;;1.88;1.40;;;;;;;;;;4131368;28;20050;-69
2023/10/30 01:19:21;;;;;;;2.30;1.73;;;;;;;;;;4132379;28;20073;-70
2023/10/30 01:21:23;;;;;;;3.38;1.98;;;;;;;;;;4132544;28;20105;-69
2023/10/30 01:23:25;;;;;;;6.70;1.90;;;;;;;;;;4132453;28;20043;-70
2023/10/30 01:25:26;;;;;;;4.45;2.20;;;;;;;;;;4134079;28;20110;-69
2023/10/30 01:27:28;;;;;;;4.15;1.77;;;;;;;;;;4148641;28;20073;-69
2023/10/30 01:29:30;;;;;;;3.42;2.78;;;;;;;;;;4148390;28;20056;-70
2023/10/30 01:31:31;;;;;;;6.72;2.13;;;;;;;;;;4148684;28;20555;-69
2023/10/30 01:33:33;;;;;;;3.42;2.35;;;;;;;;;;4148479;28;20068;-70
2023/10/30 01:35:36;;;;;;;4.97;2.25;;;;;;;;;;4139861;28;20121;-70
2023/10/30 01:37:38;;;;;;;4.30;2.50;;;;;;;;;;4115235;28;20051;-70
2023/10/30 01:39:43;;;;;;;2.85;2.63;;;;;;;;;;4115904;28;20039;-70
2023/10/30 01:41:45;;;;;;;2.38;1.40;;;;;;;;;;4121957;28;20486;-69
2023/10/30 01:43:47;;;;;;;3.15;1.45;;;;;;;;;;4132166;28;20117;-70
2023/10/30 01:45:48;;;;;;;3.53;1.47;;;;;;;;;;4132097;28;20069;-69
2023/10/30 01:47:50;;;;;;;7.30;2.13;;;;;;;;;;4116917;28;20306;-69
2023/10/30 01:49:52;;;;;;;3.80;1.95;;;;;;;;;;4115885;28;20282;-69
2023/10/30 01:51:54;;;;;;;1.80;1.70;;;;;;;;;;4116026;28;20055;-69
2023/10/30 01:53:56;;;;;;;4.90;1.50;;;;;;;;;;4116109;28;20070;-70
2023/10/30 01:55:58;;;;;;;5.88;1.48;;;;;;;;;;4115877;28;20043;-70
2023/10/30 01:57:59;;;;;;;3.17;1.67;;;;;;;;;;4114635;28;20050;-70
2023/10/30 02:00:02;;;;;;;1.55;1.42;;;;;;;;;;4125109;28;20038;-69
2023/10/30 02:02:03;;;;;;;7.15;1.75;;;;;;;;;;4131850;28;20047;-69
2023/10/30 02:04:05;;;;;;;5.82;1.17;;;;;;;;;;4131583;28;20042;-70
2023/10/30 02:06:07;;;;;;;2.50;1.10;;;;;;;;;;4131596;28;20108;-69
2023/10/30 02:08:10;;;;;;;2.25;1.40;;;;;;;;;;4131815;28;20057;-69
2023/10/30 02:10:11;;;;;;;1.98;1.95;;;;;;;;;;4131689;28;20724;-69
2023/10/30 02:12:13;;;;;;;1.85;1.38;;;;;;;;;;4131820;28;20405;-69
2023/10/30 02:14:16;;;;;;;2.50;1.30;;;;;;;;;;4131690;28;20569;-69
2023/10/30 02:16:17;;;;;;;;;;;;;;;;;;4132151;28;20042;-70
2023/10/30 02:18:19;;;;;;;3.28;1.88;;;;;;;;;;4131810;28;19967;-70
2023/10/30 02:20:21;;;;;;;4.07;1.70;;;;;;;;;;4131583;28;20093;-69
2023/10/30 02:22:22;;;;;;;3.33;1.20;;;;;;;;;;4139119;28;20045;-69
2023/10/30 02:24:24;;;;;;;3.65;1.77;;;;;;;;;;4147815;28;20038;-69
2023/10/30 02:26:26;;;;;;;4.35;1.10;;;;;;;;;;4147909;28;20388;-69
2023/10/30 02:28:28;;;;;;;3.65;1.30;;;;;;;;;;4148179;28;20077;-69
2023/10/30 02:30:29;;;;;;;1.38;1.15;;;;;;;;;;4148027;28;20034;-69
2023/10/30 02:32:31;;;;;;;2.88;1.30;;;;;;;;;;4128402;28;20045;-68
2023/10/30 02:34:33;;;;;;;2.58;1.58;;;;;;;;;;4115403;28;20046;-68
2023/10/30 02:36:34;;;;;;;2.95;1.30;;;;;;;;;;4098351;29;20035;-69
2023/10/30 02:38:36;;;;;;;2.53;1.58;;;;;;;;;;4108693;28;20043;-69
2023/10/30 02:40:38;;;;;;;3.27;1.47;;;;;;;;;;4131594;28;20066;-69
2023/10/30 02:42:40;;;;;;;4.13;1.70;;;;;;;;;;4131569;28;20054;-69
2023/10/30 02:44:43;;;;;;;8.65;1.77;;;;;;;;;;4131515;28;20042;-69
2023/10/30 02:46:45;;;;;;;1.55;1.45;;;;;;;;;;4125104;28;20456;-71
2023/10/30 02:48:46;;;;;;;3.30;1.33;;;;;;;;;;4116829;28;20394;-71
2023/10/30 02:50:48;;;;;;;5.00;1.37;;;;;;;;;;4118907;28;20039;-71
2023/10/30 02:52:50;;;;;;;1.60;1.27;;;;;;;;;;4125023;28;20653;-70
2023/10/30 02:54:52;;;;;;;2.17;1.40;;;;;;;;;;4134636;28;20694;-71
2023/10/30 02:56:53;;;;;;;2.78;1.50;;;;;;;;;;4134926;28;20045;-70
2023/10/30 02:58:55;;;;;;;1.75;1.10;;;;;;;;;;4134836;28;20426;-71
2023/10/30 03:00:57;;;;;;;3.33;1.33;;;;;;;;;;4134872;28;20039;-76
2023/10/30 03:02:59;;;;;;;2.83;1.73;;;;;;;;;;4134552;28;20495;-75
2023/10/30 03:05:01;;;;;;;1.45;1.20;;;;;;;;;;4134325;28;20125;-74
2023/10/30 03:07:03;;;;;;;2.67;1.50;;;;;;;;;;4134342;28;20457;-74
2023/10/30 03:09:04;;;;;;;6.70;1.67;;;;;;;;;;4134627;28;20483;-73
2023/10/30 03:11:07;;;;;;;1.85;1.10;;;;;;;;;;4117032;28;20051;-73
2023/10/30 03:13:09;;;;;;;;;;;;;;;;;;4134927;28;20042;-73
2023/10/30 03:15:10;;;;;;;2.38;1.35;;;;;;;;;;4134302;28;20309;-72
2023/10/30 03:17:12;;;;;;;1.30;1.20;;;;;;;;;;4134604;28;20046;-74
2023/10/30 03:19:14;;;;;;;5.97;1.58;;;;;;;;;;4113136;28;20134;-73
2023/10/30 03:21:16;;;;;;;1.25;1.15;;;;;;;;;;4150577;28;20030;-72
2023/10/30 03:23:17;;;;;;;1.30;1.20;;;;;;;;;;4150770;28;20034;-72
2023/10/30 03:25:19;;;;;;;2.15;1.20;;;;;;;;;;4150607;28;20112;-72
2023/10/30 03:27:21;;;;;;;1.60;1.35;;;;;;;;;;4150817;28;20133;-71
2023/10/30 03:29:22;;;;;;;2.28;1.58;;;;;;;;;;4121156;28;20052;-72
2023/10/30 03:31:24;;;;;;;2.75;1.10;;;;;;;;;;4118426;28;20043;-73
2023/10/30 03:33:26;;;;;;;1.40;1.30;;;;;;;;;;4118004;28;20051;-72
2023/10/30 03:35:28;;;;;;;2.15;1.52;;;;;;;;;;4133129;28;20045;-73
2023/10/30 03:37:44;;;;;;;1.98;1.55;;;;;;;;;;4134074;28;20061;-74
2023/10/30 03:39:46;;;;;;;3.10;1.10;;;;;;;;;;4116473;28;20094;-72
2023/10/30 03:41:50;;;;;;;3.47;1.90;;;;;;;;;;4134318;28;20070;-73
2023/10/30 03:43:51;;;;;;;4.60;1.65;;;;;;;;;;4134448;28;20045;-72
2023/10/30 03:45:53;;;;;;;2.78;1.33;;;;;;;;;;4134094;28;20038;-71
2023/10/30 03:47:55;;;;;;;2.65;1.23;;;;;;;;;;4118208;28;20411;-72
2023/10/30 03:49:57;;;;;;;2.28;1.20;;;;;;;;;;4118024;28;20380;-71
2023/10/30 03:52:01;;;;;;;3.72;1.52;;;;;;;;;;4117876;28;20503;-72
2023/10/30 03:54:03;;;;;;;1.27;1.20;;;;;;;;;;4117646;28;20055;-71
2023/10/30 03:56:06;;;;;;;2.13;1.30;;;;;;;;;;4117557;28;20476;-72
2023/10/30 03:58:07;;;;;;;3.75;1.40;;;;;;;;;;4117700;28;20031;-71
2023/10/30 04:00:09;;;;;;;1.30;1.20;;;;;;;;;;4127047;28;20398;-72
2023/10/30 04:02:11;;;;;;;2.50;2.08;;;;;;;;;;4133961;28;20046;-71
2023/10/30 04:04:13;;;;;;;2.70;1.33;;;;;;;;;;4133429;28;20046;-71
2023/10/30 04:06:14;;;;;;;5.28;1.20;;;;;;;;;;4133704;28;20050;-71
2023/10/30 04:08:16;;;;;;;2.40;1.42;;;;;;;;;;4144681;28;20120;-71
2023/10/30 04:10:18;;;;;;;1.85;1.02;;;;;;;;;;4133658;28;20039;-73
2023/10/30 04:12:20;;;;;;;5.13;1.65;;;;;;;;;;4133592;28;20042;-70
2023/10/30 04:14:22;;;;;;;1.58;1.38;;;;;;;;;;4136966;28;20127;-71
2023/10/30 04:16:24;;;;;;;4.15;1.30;;;;;;;;;;4149912;28;20151;-71
2023/10/30 04:18:25;;;;;;;2.88;1.00;;;;;;;;;;4149960;28;20038;-71
2023/10/30 04:20:27;;;;;;;1.67;1.52;;;;;;;;;;4149720;28;20100;-71
2023/10/30 04:22:29;;;;;;;2.58;1.40;;;;;;;;;;4149689;28;20033;-71
2023/10/30 04:24:32;;;;;;;6.35;1.45;;;;;;;;;;4138266;28;20608;-70
2023/10/30 04:26:33;;;;;;;5.60;1.90;;;;;;;;;;4117249;28;20049;-71
2023/10/30 04:28:36;;;;;;;3.80;1.42;;;;;;;;;;4117141;28;20121;-70
2023/10/30 04:30:37;;;;;;;4.30;1.38;;;;;;;;;;4123861;28;20054;-70
2023/10/30 04:32:39;;;;;;;2.90;1.40;;;;;;;;;;4133331;28;20052;-71
2023/10/30 04:34:41;;;;;;;1.30;1.10;;;;;;;;;;4133157;28;20325;-71
2023/10/30 04:36:42;;;;;;;8.98;1.70;;;;;;;;;;4133111;28;20148;-71
2023/10/30 04:38:44;;;;;;;1.92;1.20;;;;;;;;;;4133010;28;20039;-70
2023/10/30 04:40:45;;;;;;;3.97;1.30;;;;;;;;;;4133116;28;20037;-70
2023/10/30 04:42:50;;;;;;;1.85;1.20;;;;;;;;;;4133392;28;20072;-70
2023/10/30 04:44:52;;;;;;;1.92;1.20;;;;;;;;;;4115746;28;20047;-70
2023/10/30 04:46:53;;;;;;;4.65;1.55;;;;;;;;;;4125597;28;20042;-70
2023/10/30 04:48:55;;;;;;;5.90;1.38;;;;;;;;;;4116889;28;20054;-70
2023/10/30 04:50:57;;;;;;;2.10;1.13;;;;;;;;;;4116935;28;20043;-70
2023/10/30 04:52:58;;;;;;;1.77;1.20;;;;;;;;;;4116923;28;20097;-71
2023/10/30 04:55:00;;;;;;;4.32;1.33;;;;;;;;;;4116684;28;20059;-70
2023/10/30 04:57:02;;;;;;;5.35;1.80;;;;;;;;;;4116802;28;20038;-70
2023/10/30 04:59:03;;;;;;;5.75;1.20;;;;;;;;;;4118609;28;20394;-70
2023/10/30 05:01:08;;;;;;;2.65;1.35;;;;;;;;;;4132674;28;20077;-70
2023/10/30 05:03:10;;;;;;;2.35;1.00;;;;;;;;;;4115655;28;20035;-70
2023/10/30 05:05:13;;;;;;;1.17;1.10;;;;;;;;;;4132609;28;20067;-70
2023/10/30 05:07:14;;;;;;;;;;;;;;;;;;4133036;28;20042;-70
2023/10/30 05:09:16;;;;;;;1.85;1.20;;;;;;;;;;4132614;28;19925;-70
2023/10/30 05:11:18;;;;;;;2.67;1.20;;;;;;;;;;4141125;28;20038;-70
2023/10/30 05:13:20;;;;;;;1.38;1.27;;;;;;;;;;4148795;28;20046;-70
2023/10/30 05:15:22;;;;;;;1.13;1.02;;;;;;;;;;4148881;28;20038;-70
2023/10/30 05:17:23;;;;;;;3.72;1.45;;;;;;;;;;4148668;28;20522;-70
2023/10/30 05:19:25;;;;;;;1.58;1.08;;;;;;;;;;4128257;28;20574;-70
2023/10/30 05:21:27;;;;;;;1.00;1.00;;;;;;;;;;4118422;28;20046;-70
2023/10/30 05:23:29;;;;;;;3.78;1.10;;;;;;;;;;4116399;28;20510;-70
2023/10/30 05:25:30;;;;;;;2.42;1.00;;;;;;;;;;4116519;28;20042;-70
2023/10/30 05:27:44;;;;;;;3.22;1.50;;;;;;;;;;4128836;28;20039;-69
2023/10/30 05:29:46;;;;;;;4.45;1.40;;;;;;;;;;4128268;28;20038;-69
2023/10/30 05:31:48;;;;;;;1.23;1.10;;;;;;;;;;4132414;28;20133;-69
2023/10/30 05:33:50;;;;;;;3.72;1.38;;;;;;;;;;4132177;28;20038;-70
2023/10/30 05:35:52;;;;;;;6.47;2.10;;;;;;;;;;4132103;28;20153;-70
2023/10/30 05:37:54;;;;;;;1.10;1.10;;;;;;;;;;4115260;28;20034;-69
2023/10/30 05:39:55;;;;;;;2.80;1.20;;;;;;;;;;4132191;28;20045;-69
2023/10/30 05:41:58;;;;;;;3.40;1.45;;;;;;;;;;4114880;28;20114;-70
2023/10/30 05:44:00;;;;;;;1.58;1.10;;;;;;;;;;4115030;28;20066;-70
2023/10/30 05:46:02;;;;;;;4.10;1.30;;;;;;;;;;4132143;28;20121;-70
2023/10/30 05:48:04;;;;;;;2.40;1.08;;;;;;;;;;4132305;28;20054;-70
2023/10/30 05:50:06;;;;;;;1.27;1.10;;;;;;;;;;4131059;28;20548;-69
2023/10/30 05:52:09;;;;;;;3.97;1.00;;;;;;;;;;4132053;28;20086;-70
2023/10/30 05:54:11;;;;;;;1.55;1.10;;;;;;;;;;4132239;28;20495;-70
2023/10/30 05:56:13;;;;;;;2.20;1.00;;;;;;;;;;4132061;28;20045;-70
2023/10/30 05:58:14;;;;;;;1.38;1.20;;;;;;;;;;4132236;28;20603;-70
2023/10/30 06:00:16;;;;;;;3.53;1.17;;;;;;;;;;4114259;28;20514;-69
2023/10/30 06:02:18;;;;;;;3.25;1.00;;;;;;;;;;4132033;28;20045;-69
2023/10/30 06:04:19;;;;;;;2.65;1.73;;;;;;;;;;4131651;28;20055;-69
2023/10/30 06:06:21;;;;;;;2.35;1.10;;;;;;;;;;4131710;28;20413;-70
2023/10/30 06:08:23;;;;;;;3.10;1.40;;;;;;;;;;4134898;28;20124;-70
2023/10/30 06:10:25;;;;;;;;;;;;;;;;;;4132376;28;20096;-69
2023/10/30 06:12:27;;;;;;;6.30;1.30;;;;;;;;;;4131682;28;20432;-69
2023/10/30 06:14:29;;;;;;;2.15;1.30;;;;;;;;;;4131044;28;20046;-70
2023/10/30 06:16:31;;;;;;;;;;;;;;;;;;4116069;28;20565;-69
2023/10/30 06:18:32;;;;;;;2.83;1.10;;;;;;;;;;4128495;28;19940;-70
2023/10/30 06:20:34;;;;;;;3.17;1.65;;;;;;;;;;4123115;28;20466;-72
2023/10/30 06:22:36;;;;;;;2.10;1.20;;;;;;;;;;4125322;28;20049;-68
2023/10/30 06:24:37;;;;;;;3.93;1.30;;;;;;;;;;4130171;28;20043;-68
2023/10/30 06:26:41;;;;;;;2.38;1.10;;;;;;;;;;4131291;28;20730;-67
2023/10/30 06:28:42;;;;;;;2.85;1.00;;;;;;;;;;4131264;28;20172;-67
2023/10/30 06:30:44;;;;;;;3.60;1.20;;;;;;;;;;4131523;28;20042;-68
2023/10/30 06:32:46;;;;;;;1.73;1.10;;;;;;;;;;4131527;28;20050;-67
2023/10/30 06:34:48;;;;;;;2.58;1.25;;;;;;;;;;4131388;28;20046;-68
2023/10/30 06:36:50;;;;;;;4.00;1.10;;;;;;;;;;4131474;28;20038;-67
2023/10/30 06:38:51;;;;;;;3.45;1.25;;;;;;;;;;4131315;28;20066;-68
2023/10/30 06:40:53;;;;;;;3.60;1.65;;;;;;;;;;4099590;28;20077;-68
2023/10/30 06:42:55;;;;;;;1.52;1.33;;;;;;;;;;4118558;28;20038;-68
2023/10/30 06:44:56;;;;;;;1.40;1.30;;;;;;;;;;4103571;28;20578;-67
2023/10/30 06:46:59;;;;;;;8.50;1.48;;;;;;;;;;4131034;28;20056;-68
2023/10/30 06:49:00;;;;;;;2.50;1.00;;;;;;;;;;4131308;28;20517;-68
2023/10/30 06:51:05;;;;;;;2.35;1.00;;;;;;;;;;4131343;28;20077;-69
2023/10/30 06:53:06;;;;;;;1.85;1.27;;;;;;;;;;4131259;28;20113;-67
2023/10/30 06:55:08;;;;;;;1.13;1.10;;;;;;;;;;4131183;28;20395;-68
2023/10/30 06:57:10;;;;;;;2.72;1.10;;;;;;;;;;4131385;28;20038;-68
2023/10/30 06:59:14;;;;;;;6.72;1.33;;;;;;;;;;4131040;28;20049;-68
2023/10/30 07:01:16;;;;;;;2.05;1.48;;;;;;;;;;4131157;28;20495;-68
2023/10/30 07:03:21;;;;;;;3.63;1.35;;;;;;;;;;4134407;28;20072;-68
2023/10/30 07:05:22;;;;;;;1.75;1.15;;;;;;;;;;4131041;28;20498;-67
2023/10/30 07:07:24;;;;;;;1.70;1.05;;;;;;;;;;4131712;28;20061;-68
2023/10/30 07:09:26;;;;;;;5.45;1.17;;;;;;;;;;4131363;28;20051;-67
2023/10/30 07:11:28;;;;;;;3.70;1.50;;;;;;;;;;4131237;28;20409;-68
2023/10/30 07:13:29;;;;;;;3.35;1.30;;;;;;;;;;4123990;28;20153;-68
2023/10/30 07:15:31;;;;;;;2.55;1.85;;;;;;;;;;4115063;28;20093;-68
2023/10/30 07:17:33;;;;;;;2.38;1.10;;;;;;;;;;4115128;28;20053;-68
2023/10/30 07:19:34;;;;;;;4.25;1.20;;;;;;;;;;4123148;28;20117;-68
2023/10/30 07:21:36;;;;;;;4.32;1.38;;;;;;;;;;4131129;28;20039;-68
2023/10/30 07:23:41;;;;;;;2.28;1.17;;;;;;;;;;4131364;28;20113;-68
2023/10/30 07:25:43;;;;;;;4.23;1.27;;;;;;;;;;4131011;28;20074;-68
2023/10/30 07:27:45;;;;;;;4.57;1.20;;;;;;;;;;4131078;28;20285;-68
2023/10/30 07:29:46;;;;;;;2.20;1.30;;;;;;;;;;4131026;28;20043;-68
2023/10/30 07:31:48;;;;;;;3.67;1.40;;;;;;;;;;4131116;28;20069;-68
2023/10/30 07:33:50;;;;;;;2.45;1.42;;;;;;;;;;4131090;28;20046;-68
2023/10/30 07:35:52;;;;;;;4.03;1.65;;;;;;;;;;4133825;28;20053;-68
2023/10/30 07:37:54;;;;;;;3.97;1.40;;;;;;;;;;4116610;28;20039;-68
2023/10/30 07:39:55;;;;;;;4.88;1.75;;;;;;;;;;4133799;28;20477;-68
2023/10/30 07:41:57;;;;;;;2.70;1.50;;;;;;;;;;4133904;28;20310;-68
2023/10/30 07:43:59;;;;;;;7.33;2.07;;;;;;;;;;4116530;28;20141;-68
2023/10/30 07:46:00;;;;;;;7.07;1.35;;;;;;;;;;4116152;28;20290;-68
2023/10/30 07:48:02;;;;;;;6.53;1.95;;;;;;;;;;4117824;28;20078;-68
2023/10/30 07:50:04;;;;;;;3.72;1.10;;;;;;;;;;4117884;28;20042;-68
2023/10/30 07:52:06;;;;;;;1.00;1.00;;;;;;;;;;4117828;28;20070;-69
2023/10/30 07:54:08;;;;;;;2.75;1.00;;;;;;;;;;4117699;28;20074;-69
2023/10/30 07:56:10;;;;;;;3.53;1.40;;;;;;;;;;4117891;28;20047;-69
2023/10/30 07:58:15;;;;;;;3.17;1.00;;;;;;;;;;4116362;28;20474;-68
2023/10/30 08:00:17;;;;;;;5.68;1.33;;;;;;;;;;4114664;28;20411;-69
2023/10/30 08:02:18;;;;;;;3.40;1.50;;;;;;;;;;4133702;28;20406;-69
2023/10/30 08:04:21;;;;;;;3.50;2.17;;;;;;;;;;4133368;28;20462;-69
2023/10/30 08:06:24;;;;;;;3.75;1.20;;;;;;;;;;4133549;28;20121;-69
2023/10/30 08:08:28;;;;;;;7.13;1.10;;;;;;;;;;4133272;28;20490;-68
2023/10/30 08:10:30;;;;;;;3.00;1.45;;;;;;;;;;4105515;28;20106;-68
2023/10/30 08:12:32;;;;;;;2.65;1.55;;;;;;;;;;4117438;28;20443;-68
2023/10/30 08:14:34;;;;;;;2.70;1.38;;;;;;;;;;4117479;28;20126;-69
2023/10/30 08:16:38;;;;;;;6.32;3.35;;;;;;;;;;4131955;28;20049;-69
2023/10/30 08:18:39;;;;;;;3.38;2.55;;;;;;;;;;4133570;28;20039;-69
2023/10/30 08:20:44;;;;;;;6.18;2.70;;;;;;;;;;4133338;28;20122;-68
2023/10/30 08:22:46;;;;;;;1.63;1.10;;;;;;;;;;4133139;28;20446;-69
2023/10/30 08:24:48;;;;;;;5.10;1.20;;;;;;;;;;4133518;28;20117;-69
2023/10/30 08:26:50;;;;;;;3.30;1.17;;;;;;;;;;4132950;28;20097;-68
2023/10/30 08:28:52;;;;;;;1.35;1.30;;;;;;;;;;4115645;28;20053;-69
2023/10/30 08:30:53;;;;;;;2.58;1.30;;;;;;;;;;4132831;28;20048;-69
2023/10/30 08:32:56;;;;;;;1.42;1.20;;;;;;;;;;4132987;28;20046;-69
2023/10/30 08:35:01;;;;;;;;;;;;;;;;;;4133506;28;20046;-68
2023/10/30 08:37:03;;;;;;;4.55;1.40;;;;;;;;;;4132768;28;19926;-69
2023/10/30 08:39:06;;;;;;;1.10;1.10;;;;;;;;;;4132693;28;20046;-69
2023/10/30 08:41:14;;;;;;;1.95;1.20;;;;;;;;;;4132882;28;20042;-69
2023/10/30 08:43:15;;;;;;;2.00;1.60;;;;;;;;;;4132997;28;20479;-69
2023/10/30 08:45:17;;;;;;;4.15;1.40;;;;;;;;;;4132669;28;20034;-69
2023/10/30 08:47:19;;;;;;;3.13;2.15;;;;;;;;;;4121224;28;20086;-68
2023/10/30 08:49:21;;;;;;;1.73;1.27;;;;;;;;;;4116542;28;20042;-69
2023/10/30 08:51:23;;;;;;;1.00;1.00;;;;;;;;;;4116984;28;20046;-68
2023/10/30 08:53:25;;;;;;;1.40;1.30;;;;;;;;;;4116593;28;20057;-69
2023/10/30 08:55:26;;;;;;;3.13;1.55;;;;;;;;;;4120236;28;20042;-68
2023/10/30 08:57:28;;;;;;;1.65;1.38;;;;;;;;;;4133828;28;20042;-68
2023/10/30 08:59:30;;;;;;;2.85;1.30;;;;;;;;;;4132630;28;20176;-68
2023/10/30 09:01:32;;;;;;;1.50;1.30;;;;;;;;;;4132513;28;20414;-69
2023/10/30 09:03:34;;;;;;;5.07;1.67;;;;;;;;;;4132338;28;20042;-68
2023/10/30 09:05:36;;;;;;;2.92;1.55;;;;;;;;;;4127952;28;20494;-68
2023/10/30 09:07:38;;;;;;;1.70;1.10;;;;;;;;;;4116329;28;20054;-69
2023/10/30 09:09:40;;;;;;;2.55;1.20;;;;;;;;;;4122384;28;20042;-69
2023/10/30 09:11:42;;;;;;;2.85;1.08;;;;;;;;;;4131986;28;20117;-69
2023/10/30 09:13:44;;;;;;;;;;;;;;;;;;4132128;28;20038;-68
2023/10/30 09:15:45;;;;;;;1.52;1.30;;;;;;;;;;4132199;28;19929;-69
2023/10/30 09:17:47;;;;;;;1.90;1.40;;;;;;;;;;4131816;28;20050;-68
2023/10/30 09:19:49;;;;;;;1.80;1.00;;;;;;;;;;4132574;28;20114;-68
2023/10/30 09:21:50;;;;;;;2.50;1.00;;;;;;;;;;4132336;28;20077;-68
2023/10/30 09:23:56;;;;;;;2.63;1.00;;;;;;;;;;4132368;28;20034;-68
2023/10/30 09:25:58;;;;;;;2.08;1.20;;;;;;;;;;4132389;28;20139;-68
2023/10/30 09:28:00;;;;;;;3.90;1.00;;;;;;;;;;4132570;28;20100;-68
2023/10/30 09:30:03;;;;;;;;;;;;;;;;;;4132973;28;20046;-68
2023/10/30 09:32:05;;;;;;;;;;;;;;;;;;4132746;28;19923;-68
2023/10/30 09:34:07;;;;;;;1.80;1.08;;;;;;;;;;4132377;28;19925;-68
2023/10/30 09:36:09;;;;;;;0.95;0.90;;;;;;;;;;4132383;28;20502;-68
2023/10/30 09:38:11;;;;;;;4.38;0.93;;;;;;;;;;4132073;28;20117;-68
2023/10/30 09:40:13;;;;;;;3.13;1.00;;;;;;;;;;4114689;28;20113;-68
2023/10/30 09:42:15;;;;;;;1.25;1.23;;;;;;;;;;4132305;28;20042;-68
2023/10/30 09:44:17;;;;;;;2.35;0.90;;;;;;;;;;4132159;28;20038;-68
2023/10/30 09:46:21;;;;;;;3.72;1.15;;;;;;;;;;4129297;28;20042;-68
2023/10/30 09:48:24;;;;;;;4.18;1.00;;;;;;;;;;4115900;28;20071;-68
2023/10/30 09:50:28;;;;;;;2.60;1.10;;;;;;;;;;4099047;28;20043;-68
2023/10/30 09:52:31;;;;;;;3.40;0.90;;;;;;;;;;4110369;28;20049;-68
2023/10/30 09:54:35;;;;;;;1.58;1.02;;;;;;;;;;4132002;28;20130;-68
2023/10/30 09:56:38;;;;;;;3.13;1.00;;;;;;;;;;4131995;28;20513;-68
2023/10/30 09:58:39;;;;;;;1.92;0.90;;;;;;;;;;4131045;28;20042;-67
2023/10/30 10:00:45;;;;;;;3.72;1.25;;;;;;;;;;4131739;28;20085;-68
2023/10/30 10:02:47;;;;;;;5.90;1.00;;;;;;;;;;4120019;28;20053;-68
2023/10/30 10:04:49;;;;;;;2.88;1.08;;;;;;;;;;4115656;28;20058;-68
2023/10/30 10:06:51;;;;;;;3.50;1.45;;;;;;;;;;4115930;28;20061;-67
2023/10/30 10:08:54;;;;;;;2.05;0.90;;;;;;;;;;4128045;28;20046;-67
2023/10/30 10:10:57;;;;;;;2.20;0.90;;;;;;;;;;4131741;28;20050;-67
2023/10/30 10:13:01;;;;;;;1.17;0.95;;;;;;;;;;4132198;28;20064;-68
2023/10/30 10:15:06;;;;;;;1.17;1.10;;;;;;;;;;4131658;28;20042;-67
2023/10/30 10:17:08;;;;;;;3.80;1.00;;;;;;;;;;4131627;28;20049;-67
2023/10/30 10:19:20;;;;;;;2.35;1.00;;;;;;;;;;4131587;28;20042;-68
2023/10/30 10:21:22;;;;;;;3.60;1.00;;;;;;;;;;4131669;28;20096;-68
2023/10/30 10:23:25;;;;;;;1.20;1.02;;;;;;;;;;4131835;28;20289;-68
2023/10/30 10:25:26;;;;;;;2.60;1.30;;;;;;;;;;4131444;28;20050;-67
2023/10/30 10:27:28;;;;;;;1.30;1.00;;;;;;;;;;4131793;28;20042;-68
2023/10/30 10:29:31;;;;;;;1.48;1.10;;;;;;;;;;4124709;28;20039;-67
2023/10/30 10:31:32;;;;;;;2.45;1.70;;;;;;;;;;4131139;28;20050;-68
2023/10/30 10:33:37;;;;;;;3.70;1.23;;;;;;;;;;4130967;28;20042;-67
2023/10/30 10:35:42;;;;;;;1.73;0.90;;;;;;;;;;4130972;28;20130;-68
2023/10/30 10:37:44;;;;;;;3.78;0.90;;;;;;;;;;4126193;28;20046;-68
2023/10/30 10:39:47;;;;;;;0.93;0.93;;;;;;;;;;4123053;28;20034;-67
2023/10/30 10:41:50;;;;;;;4.25;1.17;;;;;;;;;;4130774;28;20498;-67
2023/10/30 10:43:53;;;;;;;3.35;1.00;;;;;;;;;;4131227;28;20042;-67
2023/10/30 10:45:55;;;;;;;2.05;0.90;;;;;;;;;;4131567;28;20081;-68
2023/10/30 10:47:57;;;;;;;1.00;0.90;;;;;;;;;;4132706;28;20047;-67
2023/10/30 10:49:59;;;;;;;2.85;0.90;;;;;;;;;;4132281;28;20042;-67
2023/10/30 10:52:04;;;;;;;3.08;0.98;;;;;;;;;;4131212;28;20491;-68
2023/10/30 10:54:10;;;;;;;5.75;1.17;;;;;;;;;;4131218;28;20050;-68
2023/10/30 10:56:14;;;;;;;1.52;0.82;;;;;;;;;;4129347;28;20053;-67
2023/10/30 10:58:19;;;;;;;2.47;0.90;;;;;;;;;;4122834;28;20395;-68
2023/10/30 11:00:22;;;;;;;2.55;0.80;;;;;;;;;;4131373;28;20223;-67
2023/10/30 11:02:28;;;;;;;3.95;1.30;;;;;;;;;;4113709;28;20039;-67
2023/10/30 11:04:30;;;;;;;1.10;0.73;;;;;;;;;;4130742;28;20054;-67
2023/10/30 11:06:37;;;;;;;2.95;0.93;;;;;;;;;;4112543;28;20039;-67
2023/10/30 11:08:55;;;;;;;2.63;0.95;;;;;;;;;;4130407;28;20487;-67
2023/10/30 11:11:03;;;;;;;2.65;0.80;;;;;;;;;;4134228;28;20046;-67
2023/10/30 11:13:11;;;;;;;1.17;0.80;;;;;;;;;;4132689;28;20045;-68
2023/10/30 11:15:29;;;;;;;1.80;0.90;;;;;;;;;;4132650;28;20042;-66
2023/10/30 11:17:31;;;;;;;1.17;0.90;;;;;;;;;;4134216;28;20066;-68
2023/10/30 11:19:32;;;;;;;1.23;0.70;;;;;;;;;;4134258;28;20042;-67
2023/10/30 11:21:35;;;;;;;2.38;0.90;;;;;;;;;;4132263;28;20049;-67
2023/10/30 11:23:51;;;;;;;1.67;1.00;;;;;;;;;;4115872;28;20090;-66
2023/10/30 11:25:54;;;;;;;1.73;0.80;;;;;;;;;;4116330;28;20448;-67
2023/10/30 11:27:56;;;;;;;1.30;0.90;;;;;;;;;;4133086;28;20186;-67
2023/10/30 11:30:03;;;;;;;1.48;1.00;;;;;;;;;;4130072;28;20042;-67
2023/10/30 11:32:05;;;;;;;7.00;1.30;;;;;;;;;;4133353;28;20053;-67
2023/10/30 11:34:11;;;;;;;1.65;0.80;;;;;;;;;;4134365;28;20050;-67
2023/10/30 11:36:16;;;;;;;3.25;1.55;;;;;;;;;;4132095;28;20038;-67
2023/10/30 11:38:18;;;;;;;3.33;1.42;;;;;;;;;;4133358;28;20717;-67
2023/10/30 11:40:20;;;;;;;1.70;0.75;;;;;;;;;;4133909;28;20102;-67
2023/10/30 11:42:22;;;;;;;7.13;0.80;;;;;;;;;;4133422;28;20090;-67
2023/10/30 11:44:28;;;;;;;1.83;0.80;;;;;;;;;;4119585;28;20049;-67
2023/10/30 11:46:30;;;;;;;0.77;0.77;;;;;;;;;;4133620;28;20076;-67
2023/10/30 11:48:31;;;;;;;1.35;0.80;;;;;;;;;;4132869;28;20081;-67
2023/10/30 11:50:38;;;;;;;1.05;0.80;;;;;;;;;;4133806;28;20102;-67
2023/10/30 11:52:40;;;;;;;1.85;0.82;;;;;;;;;;4133837;28;20054;-67
2023/10/30 11:54:42;;;;;;;;;;;;;;;;;;4132489;28;20038;-66
2023/10/30 11:56:48;;;;;;;5.95;0.98;;;;;;;;;;4131093;28;19932;-66
2023/10/30 11:58:49;;;;;;;0.90;0.80;;;;;;;;;;4131366;28;20680;-67
2023/10/30 12:00:51;;;;;;;2.45;0.90;;;;;;;;;;4115776;28;20070;-67
2023/10/30 12:02:54;;;;;;;1.23;0.75;;;;;;;;;;4130530;28;20042;-67
2023/10/30 12:05:06;;;;;;;2.15;0.90;;;;;;;;;;4128704;28;20113;-67
2023/10/30 12:07:08;;;;;;;1.90;0.77;;;;;;;;;;4133606;28;20129;-66
2023/10/30 12:09:10;;;;;;;;;;;;;;;;;;4129555;28;20058;-67
2023/10/30 12:11:11;;;;;;;1.92;0.90;;;;;;;;;;4133314;28;19922;-67
2023/10/30 12:13:13;;;;;;;1.17;1.17;;;;;;;;;;4125685;28;20269;-67
2023/10/30 12:15:15;;;;;;;1.73;0.77;;;;;;;;;;4127915;28;20047;-68